Time;durP1;ratioP1;P1;durP2;ratioP2;P2;SDS_P1;SDS_P2;PMS_P1;PMS_P2;Temp;Humidity;BMP_temperature;BMP_pressure;BME280_temperature;BME280_humidity;BME280_pressure;Samples;Min_cycle;Max_cycle;Signal;HPM_P1;HPM_P2
2023/01/20 00:02:22;;;;;;;;;;;17.60;64.40;;;;;;5023986;28;1320;-72
2023/01/20 00:04:48;;;;;;;;;;;17.70;64.50;;;;;;5022037;28;1373;-72
2023/01/20 00:07:14;;;;;;;;;;;17.60;64.50;;;;;;5024011;28;1294;-72
2023/01/20 00:09:39;;;;;;;;;;;17.70;64.50;;;;;;5020135;28;1067;-73
2023/01/20 00:12:05;;;;;;;;;;;17.60;64.50;;;;;;5020436;28;878;-72
2023/01/20 00:14:30;;;;;;;;;;;17.60;64.50;;;;;;5020487;28;1987;-72
2023/01/20 00:16:56;;;;;;;;;;;17.60;64.50;;;;;;5019814;28;1375;-72
2023/01/20 00:19:21;;;;;;;;;;;17.60;64.50;;;;;;5020270;28;843;-73
2023/01/20 00:21:47;;;;;;;;;;;17.60;64.50;;;;;;5020448;28;1002;-72
2023/01/20 00:24:13;;;;;;;;;;;17.60;64.60;;;;;;5021367;28;1103;-72
2023/01/20 00:26:38;;;;;;;;;;;17.60;64.60;;;;;;5022053;28;1277;-73
2023/01/20 00:29:04;;;;;;;;;;;17.60;64.60;;;;;;5052171;28;1262;-73
2023/01/20 00:31:29;;;;;;;;;;;17.60;64.60;;;;;;5019361;28;1783;-72
2023/01/20 00:33:55;;;;;;;;;;;17.60;64.50;;;;;;5023990;28;1973;-72
2023/01/20 00:36:21;;;;;;;;;;;17.60;64.50;;;;;;5052217;28;1283;-72
2023/01/20 00:38:47;;;;;;;;;;;17.60;64.60;;;;;;5020453;28;1495;-72
2023/01/20 00:41:12;;;;;;;;;;;17.60;64.60;;;;;;5033604;28;878;-72
2023/01/20 00:43:38;;;;;;;;;;;17.60;64.60;;;;;;5051004;28;958;-72
2023/01/20 00:46:03;;;;;;;;;;;17.60;64.60;;;;;;5020130;28;872;-72
2023/01/20 00:48:29;;;;;;;;;;;17.60;64.60;;;;;;5022365;28;1342;-72
2023/01/20 00:50:55;;;;;;;;;;;17.60;64.60;;;;;;5053885;28;816;-72
2023/01/20 00:53:20;;;;;;;;;;;17.60;64.60;;;;;;5021104;28;761;-72
2023/01/20 00:55:46;;;;;;;;;;;17.60;64.60;;;;;;5021365;28;1919;-72
2023/01/20 00:58:11;;;;;;;;;;;17.60;64.60;;;;;;5034158;28;1270;-72
2023/01/20 01:00:37;;;;;;;;;;;17.60;64.60;;;;;;5020915;28;816;-72
2023/01/20 01:03:02;;;;;;;;;;;17.60;64.60;;;;;;5037215;28;926;-72
2023/01/20 01:05:27;;;;;;;;;;;17.60;64.60;;;;;;5025768;28;1532;-72
2023/01/20 01:07:53;;;;;;;;;;;17.60;64.60;;;;;;5021237;28;1279;-72
2023/01/20 01:10:18;;;;;;;;;;;17.60;64.70;;;;;;5018500;28;1415;-72
2023/01/20 01:12:44;;;;;;;;;;;17.60;64.60;;;;;;5051349;28;1415;-73
2023/01/20 01:15:09;;;;;;;;;;;17.60;64.70;;;;;;5022326;28;1956;-73
2023/01/20 01:17:35;;;;;;;;;;;17.60;64.70;;;;;;5028473;28;1519;-72
2023/01/20 01:20:00;;;;;;;;;;;17.60;64.70;;;;;;5020756;28;1282;-71
2023/01/20 01:22:26;;;;;;;;;;;17.60;64.70;;;;;;5022564;28;1376;-71
2023/01/20 01:24:51;;;;;;;;;;;17.60;64.70;;;;;;5023009;28;1515;-72
2023/01/20 01:27:17;;;;;;;;;;;17.60;64.70;;;;;;5021274;28;1518;-73
2023/01/20 01:29:42;;;;;;;;;;;17.60;64.70;;;;;;5021462;28;1419;-72
2023/01/20 01:32:08;;;;;;;;;;;17.60;64.70;;;;;;5022153;28;1480;-74
2023/01/20 01:34:33;;;;;;;;;;;17.60;64.70;;;;;;5023506;28;1950;-73
2023/01/20 01:36:59;;;;;;;;;;;17.60;64.70;;;;;;5021625;28;1708;-71
2023/01/20 01:39:24;;;;;;;;;;;17.60;64.70;;;;;;5028850;28;2235;-71
2023/01/20 01:41:50;;;;;;;;;;;17.60;64.80;;;;;;5021956;28;1459;-72
2023/01/20 01:44:15;;;;;;;;;;;17.60;64.70;;;;;;5054085;28;1505;-72
2023/01/20 01:46:41;;;;;;;;;;;17.60;64.70;;;;;;5052257;28;1550;-71
2023/01/20 01:49:15;;;;;;;;;;;17.60;64.80;;;;;;5022984;28;1586;-71
2023/01/20 01:51:41;;;;;;;;;;;17.60;64.80;;;;;;5021283;28;1625;-72
2023/01/20 01:54:09;;;;;;;;;;;17.50;64.80;;;;;;5027411;28;1890;-70
2023/01/20 01:56:34;;;;;;;;;;;17.60;64.80;;;;;;5022174;28;1471;-70
2023/01/20 01:59:00;;;;;;;;;;;17.50;64.70;;;;;;5023602;28;1399;-71
2023/01/20 02:01:26;;;;;;;;;;;17.60;64.80;;;;;;5021360;28;1614;-72
2023/01/20 02:03:54;;;;;;;;;;;17.60;64.80;;;;;;5027054;28;1432;-71
2023/01/20 02:06:19;;;;;;;;;;;17.50;64.70;;;;;;5050161;28;1355;-71
2023/01/20 02:08:45;;;;;;;;;;;17.50;64.70;;;;;;5022306;28;805;-71
2023/01/20 02:11:10;;;;;;;;;;;17.50;64.70;;;;;;5033700;28;840;-71
2023/01/20 02:13:35;;;;;;;;;;;17.50;64.80;;;;;;5019487;28;1910;-72
2023/01/20 02:16:13;;;;;;;;;;;17.50;64.80;;;;;;5046966;28;910;-71
2023/01/20 02:18:42;;;;;;;;;;;17.50;64.80;;;;;;5015738;28;1367;-71
2023/01/20 02:21:26;;;;;;;;;;;17.50;64.80;;;;;;5019391;28;904;-71
2023/01/20 02:23:52;;;;;;;;;;;17.50;65.50;;;;;;5020563;28;936;-71
2023/01/20 02:26:17;;;;;;;;;;;17.50;64.80;;;;;;5022029;28;1360;-71
2023/01/20 02:28:51;;;;;;;;;;;17.50;64.90;;;;;;5017838;28;864;-70
2023/01/20 02:31:17;;;;;;;;;;;17.50;64.80;;;;;;5018267;28;819;-71
2023/01/20 02:33:42;;;;;;;;;;;17.50;64.80;;;;;;5017324;28;1902;-70
2023/01/20 02:36:09;;;;;;;;;;;17.50;64.90;;;;;;5016741;28;1335;-71
2023/01/20 02:38:49;;;;;;;;;;;17.50;64.80;;;;;;5048179;28;1172;-71
2023/01/20 02:41:15;;;;;;;;;;;17.50;64.80;;;;;;5014463;28;912;-71
2023/01/20 02:43:44;;;;;;;;;;;17.50;64.90;;;;;;5018695;28;872;-70
2023/01/20 02:46:14;;;;;;;;;;;17.50;64.90;;;;;;5052021;28;843;-71
2023/01/20 02:48:42;;;;;;;;;;;17.50;64.80;;;;;;5019213;28;1331;-71
2023/01/20 02:51:23;;;;;;;;;;;17.50;64.90;;;;;;5019302;28;883;-71
2023/01/20 02:53:48;;;;;;;;;;;17.50;64.90;;;;;;5030975;28;1902;-71
2023/01/20 02:56:14;;;;;;;;;;;17.50;64.90;;;;;;5019970;28;904;-72
2023/01/20 02:58:41;;;;;;;;;;;17.50;64.90;;;;;;5009859;28;1331;-71
2023/01/20 03:01:11;;;;;;;;;;;17.50;64.90;;;;;;5033795;28;902;-72
2023/01/20 03:03:37;;;;;;;;;;;17.50;64.90;;;;;;5021409;28;1243;-72
2023/01/20 03:06:04;;;;;;;;;;;17.50;64.90;;;;;;5016978;28;931;-72
2023/01/20 03:08:30;;;;;;;;;;;17.50;64.90;;;;;;5032761;28;1431;-72
2023/01/20 03:10:56;;;;;;;;;;;17.50;64.90;;;;;;5026020;28;824;-72
2023/01/20 03:13:24;;;;;;;;;;;17.50;65.00;;;;;;5020997;28;930;-72
2023/01/20 03:15:53;;;;;;;;;;;17.50;64.90;;;;;;5050787;28;1914;-72
2023/01/20 03:18:18;;;;;;;;;;;17.50;64.90;;;;;;5020135;28;1383;-72
2023/01/20 03:20:44;;;;;;;;;;;17.50;64.90;;;;;;5020074;28;916;-72
2023/01/20 03:23:10;;;;;;;;;;;17.50;64.90;;;;;;5023087;28;1078;-72
2023/01/20 03:25:36;;;;;;;;;;;17.50;64.90;;;;;;5018587;28;856;-72
2023/01/20 03:28:02;;;;;;;;;;;17.50;64.90;;;;;;5055137;28;1265;-72
2023/01/20 03:30:27;;;;;;;;;;;17.50;64.90;;;;;;5053539;28;1050;-72
2023/01/20 03:32:53;;;;;;;;;;;17.50;65.00;;;;;;5025798;28;981;-73
2023/01/20 03:35:18;;;;;;;;;;;17.50;64.90;;;;;;5030538;28;1903;-72
2023/01/20 03:37:44;;;;;;;;;;;17.50;64.90;;;;;;5024683;28;1294;-72
2023/01/20 03:40:10;;;;;;;;;;;17.50;64.90;;;;;;5023555;28;820;-71
2023/01/20 03:42:40;;;;;;;;;;;17.50;64.90;;;;;;5025500;28;939;-72
2023/01/20 03:45:09;;;;;;;;;;;17.50;65.00;;;;;;5024258;28;907;-72
2023/01/20 03:47:53;;;;;;;;;;;17.50;64.90;;;;;;5019930;28;1243;-72
2023/01/20 03:50:37;;;;;;;;;;;17.50;64.90;;;;;;5022283;28;987;-72
2023/01/20 03:53:21;;;;;;;;;;;17.50;64.90;;;;;;5023633;28;851;-72
2023/01/20 03:56:09;;;;;;;;;;;17.50;64.90;;;;;;5021503;28;1966;-72
2023/01/20 03:58:39;;;;;;;;;;;17.50;64.90;;;;;;5016914;28;1372;-72
2023/01/20 04:01:05;;;;;;;;;;;17.50;65.00;;;;;;5051561;28;997;-72
2023/01/20 04:03:31;;;;;;;;;;;17.50;64.90;;;;;;5034383;28;1241;-72
2023/01/20 04:05:57;;;;;;;;;;;17.50;65.00;;;;;;5056064;28;915;-72
2023/01/20 04:08:23;;;;;;;;;;;17.50;65.00;;;;;;5029762;28;1303;-72
2023/01/20 04:10:49;;;;;;;;;;;17.50;65.00;;;;;;5023904;28;894;-72
2023/01/20 04:13:14;;;;;;;;;;;17.40;64.90;;;;;;5020412;28;848;-71
2023/01/20 04:15:43;;;;;;;;;;;17.40;64.90;;;;;;5055376;28;1926;-71
2023/01/20 04:18:18;;;;;;;;;;;17.50;65.00;;;;;;5039966;28;1245;-72
2023/01/20 04:20:45;;;;;;;;;;;17.50;65.00;;;;;;5029776;28;860;-71
2023/01/20 04:23:13;;;;;;;;;;;17.50;65.00;;;;;;5021174;28;847;-71
2023/01/20 04:25:38;;;;;;;;;;;17.50;65.00;;;;;;5020252;28;903;-71
2023/01/20 04:28:04;;;;;;;;;;;17.40;65.70;;;;;;5023532;28;1245;-71
2023/01/20 04:30:29;;;;;;;;;;;17.40;64.90;;;;;;5020914;28;1218;-71
2023/01/20 04:32:54;;;;;;;;;;;17.40;64.90;;;;;;5019888;28;1347;-72
2023/01/20 04:35:20;;;;;;;;;;;17.40;64.90;;;;;;5034697;28;1902;-72
2023/01/20 04:37:45;;;;;;;;;;;17.40;64.90;;;;;;5020022;28;1261;-71
2023/01/20 04:40:11;;;;;;;;;;;17.40;65.00;;;;;;5019992;28;887;-70
2023/01/20 04:42:37;;;;;;;;;;;17.40;64.90;;;;;;5021315;28;1119;-71
2023/01/20 04:45:02;;;;;;;;;;;17.40;64.90;;;;;;5022453;28;1104;-70
2023/01/20 04:47:32;;;;;;;;;;;17.40;64.90;;;;;;5050570;28;1331;-70
2023/01/20 04:49:58;;;;;;;;;;;17.40;65.00;;;;;;5023217;28;862;-71
2023/01/20 04:52:23;;;;;;;;;;;17.40;65.00;;;;;;5019629;28;931;-72
2023/01/20 04:54:48;;;;;;;;;;;17.40;65.00;;;;;;5023249;28;1967;-72
2023/01/20 04:57:14;;;;;;;;;;;17.40;65.00;;;;;;5021814;28;1257;-72
2023/01/20 04:59:40;;;;;;;;;;;17.40;65.00;;;;;;5020305;28;1133;-72
2023/01/20 05:02:05;;;;;;;;;;;17.40;64.90;;;;;;5050063;28;914;-72
2023/01/20 05:04:31;;;;;;;;;;;17.40;65.00;;;;;;5022016;28;918;-72
2023/01/20 05:06:56;;;;;;;;;;;17.40;65.00;;;;;;5034094;28;1276;-71
2023/01/20 05:09:22;;;;;;;;;;;17.40;64.90;;;;;;5018547;28;864;-71
2023/01/20 05:11:47;;;;;;;;;;;17.40;64.90;;;;;;5022346;28;931;-71
2023/01/20 05:14:13;;;;;;;;;;;17.50;64.90;;;;;;5018682;28;1977;-71
2023/01/20 05:16:38;;;;;;;;;;;17.50;64.80;;;;;;5020610;28;1339;-71
2023/01/20 05:19:04;;;;;;;;;;;17.50;64.80;;;;;;5021984;28;852;-71
2023/01/20 05:21:29;;;;;;;;;;;17.50;64.80;;;;;;5018727;28;868;-71
2023/01/20 05:23:55;;;;;;;;;;;17.60;64.60;;;;;;5051338;28;779;-71
2023/01/20 05:26:21;;;;;;;;;;;17.60;64.40;;;;;;5018677;28;1263;-71
2023/01/20 05:28:47;;;;;;;;;;;17.60;64.30;;;;;;5021210;28;1031;-71
2023/01/20 05:31:12;;;;;;;;;;;17.60;64.10;;;;;;5020873;28;1062;-72
2023/01/20 05:33:38;;;;;;;;;;;17.70;64.80;;;;;;5020454;28;1963;-71
2023/01/20 05:36:05;;;;;;;;;;;17.70;63.90;;;;;;5016704;28;966;-71
2023/01/20 05:38:30;;;;;;;;;;;17.70;63.80;;;;;;5020007;28;1352;-71
2023/01/20 05:41:02;;;;;;;;;;;17.80;63.80;;;;;;5019537;28;895;-72
2023/01/20 05:43:28;;;;;;;;;;;17.80;63.70;;;;;;5020256;28;884;-72
2023/01/20 05:45:53;;;;;;;;;;;17.80;63.60;;;;;;5022098;28;883;-72
2023/01/20 05:48:19;;;;;;;;;;;17.80;63.60;;;;;;5019867;28;1316;-72
2023/01/20 05:50:44;;;;;;;;;;;17.80;63.50;;;;;;5021504;28;893;-70
2023/01/20 05:53:10;;;;;;;;;;;17.80;63.40;;;;;;5018663;28;960;-70
2023/01/20 05:55:35;;;;;;;;;;;17.90;63.40;;;;;;5021786;28;1894;-72
2023/01/20 05:58:01;;;;;;;;;;;17.90;63.40;;;;;;5022756;28;1265;-71
2023/01/20 06:00:27;;;;;;;;;;;17.90;63.40;;;;;;5021588;28;816;-71
2023/01/20 06:02:52;;;;;;;;;;;17.90;63.30;;;;;;5019974;28;892;-73
2023/01/20 06:05:18;;;;;;;;;;;17.90;63.30;;;;;;5018954;28;1366;-71
2023/01/20 06:07:43;;;;;;;;;;;17.90;63.30;;;;;;5019800;28;1343;-72
2023/01/20 06:10:09;;;;;;;;;;;17.90;63.30;;;;;;5018536;28;813;-71
2023/01/20 06:12:34;;;;;;;;;;;17.90;63.20;;;;;;5017732;28;809;-72
2023/01/20 06:15:00;;;;;;;;;;;17.90;63.20;;;;;;5022483;28;1906;-71
2023/01/20 06:17:25;;;;;;;;;;;17.90;63.10;;;;;;5035642;28;1294;-71
2023/01/20 06:19:51;;;;;;;;;;;17.90;63.20;;;;;;5021348;28;852;-72
2023/01/20 06:22:18;;;;;;;;;;;17.90;63.10;;;;;;5019561;28;955;-71
2023/01/20 06:24:44;;;;;;;;;;;17.90;63.10;;;;;;5019549;28;1321;-71
2023/01/20 06:27:09;;;;;;;;;;;17.90;63.10;;;;;;5020929;28;1244;-71
2023/01/20 06:29:35;;;;;;;;;;;17.90;63.10;;;;;;5020093;28;825;-71
2023/01/20 06:32:00;;;;;;;;;;;17.90;63.10;;;;;;5021789;28;862;-72
2023/01/20 06:34:26;;;;;;;;;;;17.90;63.00;;;;;;5023044;28;1890;-73
2023/01/20 06:36:51;;;;;;;;;;;17.90;63.00;;;;;;5024669;28;1378;-73
2023/01/20 06:39:17;;;;;;;;;;;17.90;63.00;;;;;;5016048;28;776;-73
2023/01/20 06:41:42;;;;;;;;;;;17.90;63.00;;;;;;5017930;28;915;-73
2023/01/20 06:44:08;;;;;;;;;;;17.90;63.00;;;;;;5015724;28;1002;-72
2023/01/20 06:46:33;;;;;;;;;;;17.90;63.00;;;;;;5013998;28;1385;-72
2023/01/20 06:49:01;;;;;;;;;;;17.90;63.00;;;;;;5022006;28;851;-71
2023/01/20 06:51:27;;;;;;;;;;;17.90;63.00;;;;;;5020086;28;930;-72
2023/01/20 06:53:53;;;;;;;;;;;18.00;63.10;;;;;;5035356;28;1953;-72
2023/01/20 06:56:18;;;;;;;;;;;17.90;63.00;;;;;;5055995;28;1287;-72
2023/01/20 06:58:44;;;;;;;;;;;17.90;63.00;;;;;;5025770;28;1116;-72
2023/01/20 07:01:11;;;;;;;;;;;17.90;63.00;;;;;;5026605;28;875;-72
2023/01/20 07:03:36;;;;;;;;;;;17.90;63.00;;;;;;5026047;28;1380;-72
2023/01/20 07:06:02;;;;;;;;;;;17.90;63.00;;;;;;5053027;28;970;-72
2023/01/20 07:08:28;;;;;;;;;;;17.90;63.10;;;;;;5053267;28;1519;-72
2023/01/20 07:10:54;;;;;;;;;;;17.90;63.10;;;;;;5053209;28;890;-72
2023/01/20 07:13:19;;;;;;;;;;;17.90;63.10;;;;;;5023665;28;1109;-72
2023/01/20 07:15:45;;;;;;;;;;;17.90;63.10;;;;;;5022558;28;1975;-73
2023/01/20 07:18:10;;;;;;;;;;;17.90;63.10;;;;;;5020305;28;1347;-72
2023/01/20 07:20:37;;;;;;;;;;;17.90;63.20;;;;;;5025139;28;810;-72
2023/01/20 07:23:03;;;;;;;;;;;17.90;63.20;;;;;;5021519;28;806;-73
2023/01/20 07:25:28;;;;;;;;;;;17.90;63.20;;;;;;5052266;28;835;-71
2023/01/20 07:27:56;;;;;;;;;;;17.90;63.30;;;;;;5021177;28;1260;-71
2023/01/20 07:30:21;;;;;;;;;;;17.80;63.20;;;;;;5022413;28;840;-71
2023/01/20 07:32:47;;;;;;;;;;;17.80;63.20;;;;;;5022728;28;1273;-71
2023/01/20 07:35:12;;;;;;;;;;;17.80;63.20;;;;;;5018187;28;1898;-71
2023/01/20 07:37:38;;;;;;;;;;;17.80;63.30;;;;;;5020552;28;1260;-71
2023/01/20 07:40:03;;;;;;;;;;;17.80;63.40;;;;;;5018424;28;857;-71
2023/01/20 07:42:29;;;;;;;;;;;17.80;63.40;;;;;;5021234;28;808;-71
2023/01/20 07:44:54;;;;;;;;;;;17.80;63.40;;;;;;5020988;28;1976;-70
2023/01/20 07:47:20;;;;;;;;;;;17.80;63.50;;;;;;5021259;28;2102;-71
2023/01/20 07:49:45;;;;;;;;;;;17.80;63.50;;;;;;5021478;28;1440;-71
2023/01/20 07:52:11;;;;;;;;;;;17.80;63.60;;;;;;5019291;28;1034;-71
2023/01/20 07:54:36;;;;;;;;;;;17.80;63.60;;;;;;5019431;28;1903;-71
2023/01/20 07:57:02;;;;;;;;;;;17.80;63.60;;;;;;5020276;28;1292;-70
2023/01/20 07:59:28;;;;;;;;;;;17.80;63.60;;;;;;5020244;28;902;-69
2023/01/20 08:01:54;;;;;;;;;;;17.80;63.60;;;;;;5018941;28;817;-70
2023/01/20 08:04:19;;;;;;;;;;;17.80;63.60;;;;;;5053066;28;1292;-72
2023/01/20 08:06:45;;;;;;;;;;;17.80;63.60;;;;;;5019272;28;1300;-71
2023/01/20 08:09:13;;;;;;;;;;;17.80;63.60;;;;;;5021632;28;900;-72
2023/01/20 08:11:38;;;;;;;;;;;17.80;63.50;;;;;;5018015;28;865;-72
2023/01/20 08:14:04;;;;;;;;;;;17.80;63.50;;;;;;5021243;28;1972;-71
2023/01/20 08:16:29;;;;;;;;;;;17.80;63.50;;;;;;5022474;28;1678;-72
2023/01/20 08:18:55;;;;;;;;;;;17.80;63.50;;;;;;5035948;28;1308;-72
2023/01/20 08:21:21;;;;;;;;;;;17.80;63.40;;;;;;5021132;28;920;-70
2023/01/20 08:23:47;;;;;;;;;;;17.80;63.40;;;;;;5023967;28;1042;-72
2023/01/20 08:26:13;;;;;;;;;;;17.80;63.40;;;;;;5022061;28;854;-71
2023/01/20 08:28:38;;;;;;;;;;;17.80;63.40;;;;;;5022669;28;1423;-71
2023/01/20 08:31:13;;;;;;;;;;;17.80;63.40;;;;;;5017789;28;897;-71
2023/01/20 08:33:40;;;;;;;;;;;17.80;63.30;;;;;;5022202;28;1310;-71
2023/01/20 08:36:06;;;;;;;;;;;17.80;63.30;;;;;;5051785;28;1882;-71
2023/01/20 08:38:32;;;;;;;;;;;17.80;63.30;;;;;;5022865;28;1291;-72
2023/01/20 08:40:57;;;;;;;;;;;17.80;63.30;;;;;;5022880;28;1012;-71
2023/01/20 08:43:22;;;;;;;;;;;17.80;63.20;;;;;;5022274;28;1018;-71
2023/01/20 08:45:56;;;;;;;;;;;17.80;63.20;;;;;;5019684;28;848;-71
2023/01/20 08:48:22;;;;;;;;;;;17.80;63.30;;;;;;5020939;28;1350;-72
2023/01/20 08:50:47;;;;;;;;;;;17.80;63.20;;;;;;5020111;28;1067;-72
2023/01/20 08:53:13;;;;;;;;;;;17.80;63.30;;;;;;5019692;28;884;-72
2023/01/20 08:55:38;;;;;;;;;;;17.80;63.20;;;;;;5019453;28;1961;-72
2023/01/20 08:58:04;;;;;;;;;;;17.90;63.30;;;;;;5020450;28;1333;-72
2023/01/20 09:00:29;;;;;;;;;;;17.80;63.20;;;;;;5018717;28;807;-71
2023/01/20 09:02:54;;;;;;;;;;;17.90;63.20;;;;;;5029397;28;1228;-71
2023/01/20 09:05:21;;;;;;;;;;;17.90;63.20;;;;;;5020952;28;1377;-73
2023/01/20 09:07:46;;;;;;;;;;;17.90;63.20;;;;;;5019572;28;1220;-71
2023/01/20 09:10:12;;;;;;;;;;;17.90;63.20;;;;;;5011291;28;4536;-72
2023/01/20 09:12:38;;;;;;;;;;;17.90;63.90;;;;;;5028445;28;1449;-72
2023/01/20 09:15:06;;;;;;;;;;;17.90;63.20;;;;;;5021884;28;1902;-73
2023/01/20 09:17:33;;;;;;;;;;;17.90;63.10;;;;;;5021549;28;1287;-72
2023/01/20 09:19:58;;;;;;;;;;;17.90;63.10;;;;;;5020696;28;919;-73
2023/01/20 09:22:24;;;;;;;;;;;17.90;63.10;;;;;;5020032;28;851;-72
2023/01/20 09:24:49;;;;;;;;;;;17.90;63.00;;;;;;5019910;28;850;-72
2023/01/20 09:27:15;;;;;;;;;;;17.90;63.00;;;;;;5017746;28;1241;-71
2023/01/20 09:29:40;;;;;;;;;;;17.90;63.00;;;;;;5019972;28;819;-72
2023/01/20 09:32:06;;;;;;;;;;;17.90;63.00;;;;;;5020175;28;998;-72
2023/01/20 09:34:31;;;;;;;;;;;17.90;63.00;;;;;;5020229;28;1890;-71
2023/01/20 09:43:52;;;;;;;;;;;17.90;62.90;;;;;;5017309;28;1549;-69
2023/01/20 09:45:23;;;;;;;;;;;17.90;62.90;;;;;;5020348;28;769;-71
2023/01/20 09:47:49;;;;;;;;;;;17.90;62.90;;;;;;5018878;28;1458;-70
2023/01/20 09:53:20;;;;;;;;;;;17.90;62.90;;;;;;5021430;28;1930;-72
2023/01/20 09:55:49;;;;;;;;;;;17.90;62.90;;;;;;5018973;28;1960;-72
2023/01/20 09:58:18;;;;;;;;;;;18.00;62.90;;;;;;5019860;28;1279;-71
2023/01/20 10:00:45;;;;;;;;;;;18.00;62.90;;;;;;5052750;28;1224;-72
2023/01/20 10:03:19;;;;;;;;;;;18.00;62.90;;;;;;5051031;28;1267;-72
2023/01/20 10:05:45;;;;;;;;;;;18.00;62.80;;;;;;5034888;28;914;-72
2023/01/20 10:08:22;;;;;;;;;;;18.00;62.80;;;;;;5047412;28;1256;-72
2023/01/20 10:10:48;;;;;;;;;;;18.00;62.80;;;;;;5021940;28;824;-72
2023/01/20 10:13:18;;;;;;;;;;;18.00;62.80;;;;;;5020034;28;905;-72
2023/01/20 10:15:46;;;;;;;;;;;18.00;62.80;;;;;;5015980;28;1965;-73
2023/01/20 10:18:20;;;;;;;;;;;18.00;62.80;;;;;;5014587;28;1238;-72
2023/01/20 10:20:48;;;;;;;;;;;18.00;62.70;;;;;;5020830;28;951;-72
2023/01/20 10:23:28;;;;;;;;;;;18.00;62.70;;;;;;5023615;28;871;-72
2023/01/20 10:25:58;;;;;;;;;;;18.00;62.70;;;;;;5023121;28;851;-72
2023/01/20 10:28:27;;;;;;;;;;;18.00;62.70;;;;;;5022887;28;1319;-72
2023/01/20 10:30:54;;;;;;;;;;;18.00;62.70;;;;;;5024272;28;830;-72
2023/01/20 10:33:38;;;;;;;;;;;18.00;62.70;;;;;;5024278;28;1010;-72
2023/01/20 10:36:07;;;;;;;;;;;18.10;62.70;;;;;;5048532;28;1973;-72
2023/01/20 10:38:42;;;;;;;;;;;18.10;62.70;;;;;;5019708;28;1291;-72
2023/01/20 10:41:10;;;;;;;;;;;18.10;62.70;;;;;;5051206;28;824;-72
2023/01/20 10:43:36;;;;;;;;;;;18.10;62.70;;;;;;5018658;28;818;-72
2023/01/20 10:46:21;;;;;;;;;;;18.10;62.70;;;;;;5017872;28;962;-72
2023/01/20 10:48:53;;;;;;;;;;;18.10;62.70;;;;;;5036652;28;1190;-72
2023/01/20 10:51:37;;;;;;;;;;;18.00;62.60;;;;;;5019400;28;1403;-72
2023/01/20 10:54:21;;;;;;;;;;;18.10;62.70;;;;;;5018346;28;1906;-72
2023/01/20 10:56:52;;;;;;;;;;;18.10;62.70;;;;;;5015906;28;1331;-73
2023/01/20 10:59:44;;;;;;;;;;;18.10;62.70;;;;;;5046816;28;855;-72
2023/01/20 11:02:16;;;;;;;;;;;18.10;62.70;;;;;;5015249;28;1164;-73
2023/01/20 11:04:42;;;;;;;;;;;18.10;63.40;;;;;;5021776;28;1049;-73
2023/01/20 11:07:10;;;;;;;;;;;18.10;62.70;;;;;;5054561;28;1246;-73
2023/01/20 11:09:36;;;;;;;;;;;18.10;62.70;;;;;;5020155;28;865;-72
2023/01/20 11:12:02;;;;;;;;;;;18.00;62.60;;;;;;5048550;28;861;-73
2023/01/20 11:14:28;;;;;;;;;;;18.10;62.70;;;;;;5016620;28;1910;-73
2023/01/20 11:16:55;;;;;;;;;;;18.00;62.60;;;;;;5014063;28;1957;-72
2023/01/20 11:19:21;;;;;;;;;;;18.00;62.60;;;;;;5044642;28;2262;-72
2023/01/20 11:21:46;;;;;;;;;;;18.00;62.60;;;;;;5014172;28;2165;-71
2023/01/20 11:24:27;;;;;;;;;;;18.00;62.70;;;;;;5017563;28;1302;-70
2023/01/20 11:26:53;;;;;;;;;;;18.00;62.70;;;;;;5051154;28;1344;-71
2023/01/20 11:29:18;;;;;;;;;;;18.00;62.80;;;;;;5037120;28;1689;-70
2023/01/20 11:31:44;;;;;;;;;;;18.00;62.70;;;;;;5017371;28;1291;-71
2023/01/20 11:34:13;;;;;;;;;;;18.00;62.80;;;;;;5051285;28;2093;-70
2023/01/20 11:36:38;;;;;;;;;;;18.00;62.80;;;;;;5018229;28;1357;-70
2023/01/20 11:39:04;;;;;;;;;;;18.00;62.80;;;;;;5017259;28;1956;-72
2023/01/20 11:41:30;;;;;;;;;;;18.00;62.80;;;;;;5049517;28;2145;-71
2023/01/20 11:43:56;;;;;;;;;;;18.00;62.80;;;;;;5021867;28;1432;-72
2023/01/20 11:46:23;;;;;;;;;;;18.00;62.80;;;;;;5028215;28;1955;-72
2023/01/20 11:48:49;;;;;;;;;;;18.00;62.80;;;;;;5022651;28;1444;-70
2023/01/20 11:51:21;;;;;;;;;;;18.00;62.70;;;;;;5029155;28;1480;-70
2023/01/20 11:53:47;;;;;;;;;;;18.10;62.80;;;;;;5029663;28;1284;-70
2023/01/20 11:56:19;;;;;;;;;;;18.10;62.70;;;;;;5054002;28;1914;-74
2023/01/20 11:58:54;;;;;;;;;;;18.10;62.60;;;;;;5053399;28;875;-72
2023/01/20 12:01:21;;;;;;;;;;;18.10;62.50;;;;;;5055429;28;818;-72
2023/01/20 12:03:46;;;;;;;;;;;18.10;62.40;;;;;;5020354;28;1358;-70
2023/01/20 12:06:13;;;;;;;;;;;18.10;62.40;;;;;;5019958;28;908;-70
2023/01/20 12:08:47;;;;;;;;;;;18.10;62.30;;;;;;5022326;28;1322;-71
2023/01/20 12:11:13;;;;;;;;;;;18.10;62.40;;;;;;5018899;28;842;-70
2023/01/20 12:16:25;;;;;;;;;;;18.10;62.30;;;;;;5022218;28;1278;-70
2023/01/20 12:18:52;;;;;;;;;;;18.20;62.40;;;;;;5052038;28;903;-70
2023/01/20 12:21:18;;;;;;;;;;;18.20;62.40;;;;;;5020030;28;880;-70
2023/01/20 12:23:46;;;;;;;;;;;18.20;62.30;;;;;;5023752;28;1015;-71
2023/01/20 12:26:15;;;;;;;;;;;18.20;62.30;;;;;;5022635;28;880;-70
2023/01/20 12:28:42;;;;;;;;;;;18.20;62.30;;;;;;5020537;28;1196;-71
2023/01/20 12:31:10;;;;;;;;;;;18.20;62.30;;;;;;5022325;28;955;-72
2023/01/20 12:33:36;;;;;;;;;;;18.20;62.30;;;;;;5054318;28;965;-72
2023/01/20 12:36:04;;;;;;;;;;;18.20;62.30;;;;;;5024215;28;1887;-73
2023/01/20 12:38:33;;;;;;;;;;;18.20;62.30;;;;;;5037521;28;1221;-72
2023/01/20 12:40:58;;;;;;;;;;;18.10;62.20;;;;;;5020679;28;1050;-71
2023/01/20 12:43:43;;;;;;;;;;;18.20;62.20;;;;;;5021224;28;978;-73
2023/01/20 12:46:13;;;;;;;;;;;18.20;62.30;;;;;;5020171;28;919;-72
2023/01/20 12:48:57;;;;;;;;;;;18.20;62.30;;;;;;5022154;28;1291;-72
2023/01/20 12:51:26;;;;;;;;;;;18.20;62.30;;;;;;5036181;28;1314;-71
2023/01/20 12:54:10;;;;;;;;;;;18.20;62.30;;;;;;5023032;28;1970;-71
2023/01/20 12:56:48;;;;;;;;;;;18.20;62.20;;;;;;5019033;28;1244;-72
2023/01/20 12:59:15;;;;;;;;;;;18.20;62.30;;;;;;5050153;28;946;-72
2023/01/20 13:01:59;;;;;;;;;;;18.20;62.20;;;;;;5018834;28;848;-72
2023/01/20 13:04:43;;;;;;;;;;;18.20;62.30;;;;;;5019933;28;1378;-73
2023/01/20 13:07:18;;;;;;;;;;;18.20;62.30;;;;;;5020018;28;1654;-73
2023/01/20 13:09:47;;;;;;;;;;;18.20;62.30;;;;;;5022070;28;985;-72
2023/01/20 13:12:27;;;;;;;;;;;18.10;62.20;;;;;;5051463;28;872;-71
2023/01/20 13:15:19;;;;;;;;;;;18.20;62.30;;;;;;5025439;28;1977;-73
2023/01/20 13:17:57;;;;;;;;;;;18.20;62.30;;;;;;5019044;28;1281;-73
2023/01/20 13:20:24;;;;;;;;;;;18.20;62.30;;;;;;5021689;28;820;-75
2023/01/20 13:22:50;;;;;;;;;;;18.20;62.30;;;;;;5026033;28;1061;-74
2023/01/20 13:25:17;;;;;;;;;;;18.20;62.30;;;;;;5025684;28;893;-74
2023/01/20 13:27:43;;;;;;;;;;;18.20;62.30;;;;;;5052722;28;1345;-73
2023/01/20 13:30:28;;;;;;;;;;;18.10;62.20;;;;;;5019757;28;947;-73
2023/01/20 13:33:01;;;;;;;;;;;18.10;62.20;;;;;;5018379;28;1377;-73
2023/01/20 13:35:27;;;;;;;;;;;18.20;62.30;;;;;;5032712;28;1973;-74
2023/01/20 13:37:52;;;;;;;;;;;18.10;62.20;;;;;;5019344;28;1280;-73
2023/01/20 13:40:36;;;;;;;;;;;18.20;62.30;;;;;;5016043;28;951;-72
2023/01/20 13:43:22;;;;;;;;;;;18.20;62.30;;;;;;5018189;28;1021;-72
2023/01/20 13:45:49;;;;;;;;;;;18.20;62.30;;;;;;5015584;28;2657;-73
2023/01/20 13:48:21;;;;;;;;;;;18.10;62.20;;;;;;5029568;28;1689;-72
2023/01/20 13:50:49;;;;;;;;;;;18.10;62.20;;;;;;5021604;28;1327;-72
2023/01/20 13:53:20;;;;;;;;;;;18.10;62.20;;;;;;5033563;28;832;-72
2023/01/20 13:55:48;;;;;;;;;;;18.10;62.20;;;;;;5020029;28;1910;-73
2023/01/20 13:58:14;;;;;;;;;;;18.10;62.20;;;;;;5020036;28;1284;-73
2023/01/20 14:00:39;;;;;;;;;;;18.10;62.20;;;;;;5019160;28;895;-73
2023/01/20 14:03:31;;;;;;;;;;;18.10;62.20;;;;;;5020038;28;888;-73
2023/01/20 14:06:00;;;;;;;;;;;18.10;62.20;;;;;;5027130;28;1230;-73
2023/01/20 14:08:26;;;;;;;;;;;18.10;62.30;;;;;;5053966;28;1406;-72
2023/01/20 14:11:01;;;;;;;;;;;18.10;62.30;;;;;;5028912;28;800;-73
2023/01/20 14:13:27;;;;;;;;;;;18.10;62.20;;;;;;5020487;28;914;-73
2023/01/20 14:15:53;;;;;;;;;;;18.10;62.30;;;;;;5022679;28;1953;-73
2023/01/20 14:18:22;;;;;;;;;;;18.10;62.20;;;;;;5019444;28;1265;-73
2023/01/20 14:20:56;;;;;;;;;;;18.10;62.30;;;;;;5029050;28;917;-72
2023/01/20 14:23:24;;;;;;;;;;;18.10;62.20;;;;;;5026221;28;880;-73
2023/01/20 14:26:03;;;;;;;;;;;18.10;62.30;;;;;;5021623;28;809;-72
2023/01/20 14:28:28;;;;;;;;;;;18.10;62.20;;;;;;5024154;28;1280;-72
2023/01/20 14:31:20;;;;;;;;;;;18.10;62.20;;;;;;5019223;28;1448;-73
2023/01/20 14:33:51;;;;;;;;;;;18.10;62.30;;;;;;5021023;28;1232;-72
2023/01/20 14:36:20;;;;;;;;;;;18.10;62.30;;;;;;5010749;28;1906;-73
2023/01/20 14:38:50;;;;;;;;;;;18.10;62.20;;;;;;5049247;28;912;-73
2023/01/20 14:41:26;;;;;;;;;;;18.10;62.30;;;;;;5020239;28;864;-73
2023/01/20 14:43:51;;;;;;;;;;;18.10;62.30;;;;;;5027578;28;868;-72
2023/01/20 14:46:17;;;;;;;;;;;18.10;62.30;;;;;;5017245;28;903;-72
2023/01/20 14:48:42;;;;;;;;;;;18.10;62.40;;;;;;5019025;28;1278;-73
2023/01/20 14:51:08;;;;;;;;;;;18.10;62.80;;;;;;5022434;28;860;-73
2023/01/20 14:53:34;;;;;;;;;;;18.10;62.50;;;;;;5019248;28;1200;-72